Time;durP1;ratioP1;P1;durP2;ratioP2;P2;SDS_P1;SDS_P2;PMS_P1;PMS_P2;Temp;Humidity;BMP_temperature;BMP_pressure;BME280_temperature;BME280_humidity;BME280_pressure;Samples;Min_cycle;Max_cycle;Signal;HPM_P1;HPM_P2
2022/08/25 00:00:21;;;;;;;3.88;2.75;;;27.00;91.00;;;;;;5124594;27;20201;-37
2022/08/25 00:02:54;;;;;;;3.22;2.90;;;27.00;91.10;;;;;;5110567;27;20189;-37
2022/08/25 00:05:28;;;;;;;3.67;2.65;;;26.90;91.10;;;;;;5104302;27;20290;-37
2022/08/25 00:07:59;;;;;;;4.20;2.83;;;26.90;91.20;;;;;;5106628;27;20261;-37
2022/08/25 00:10:29;;;;;;;2.97;2.70;;;26.90;91.20;;;;;;5120264;27;20198;-37
2022/08/25 00:12:56;;;;;;;4.40;2.30;;;26.80;91.50;;;;;;5123142;27;20202;-37
2022/08/25 00:15:24;;;;;;;2.78;2.58;;;26.80;91.20;;;;;;5110948;27;20211;-46
2022/08/25 00:17:51;;;;;;;6.68;3.10;;;26.70;91.20;;;;;;5118486;27;20288;-46
2022/08/25 00:20:24;;;;;;;4.88;2.92;;;26.70;91.20;;;;;;5110151;27;20244;-46
2022/08/25 00:22:56;;;;;;;6.38;2.80;;;26.60;91.30;;;;;;5110678;27;20308;-44
2022/08/25 00:25:28;;;;;;;3.75;2.72;;;26.60;91.60;;;;;;5118070;27;20297;-46
2022/08/25 00:27:58;;;;;;;3.55;2.80;;;26.50;91.40;;;;;;5122165;27;20201;-46
2022/08/25 00:30:27;;;;;;;3.00;2.67;;;26.40;91.30;;;;;;5123415;27;20491;-46
2022/08/25 00:32:57;;;;;;;5.40;2.80;;;26.40;91.40;;;;;;5125893;27;20301;-46
2022/08/25 00:35:27;;;;;;;3.55;2.90;;;26.40;91.40;;;;;;5110105;27;20218;-46
2022/08/25 00:37:57;;;;;;;4.07;2.90;;;26.30;91.50;;;;;;5122856;27;20205;-37
2022/08/25 00:40:26;;;;;;;3.28;2.97;;;26.30;91.50;;;;;;5113556;27;20198;-37
2022/08/25 00:42:54;;;;;;;3.95;2.92;;;26.20;91.50;;;;;;5109394;27;20206;-37
2022/08/25 00:45:22;;;;;;;2.95;2.75;;;26.20;91.50;;;;;;5117306;27;20209;-37
2022/08/25 00:47:49;;;;;;;4.55;2.80;;;26.20;91.50;;;;;;5101129;27;20206;-36
2022/08/25 00:50:18;;;;;;;5.43;3.20;;;26.10;91.50;;;;;;5109397;27;20755;-35
2022/08/25 00:52:54;;;;;;;3.92;3.00;;;26.10;91.60;;;;;;5116235;27;20202;-35
2022/08/25 00:55:40;;;;;;;7.80;3.13;;;26.10;91.60;;;;;;5121201;27;20315;-37
2022/08/25 00:58:19;;;;;;;5.32;3.58;;;26.10;91.90;;;;;;5097797;27;20309;-37
2022/08/25 01:00:54;;;;;;;4.10;3.42;;;26.00;91.80;;;;;;5099534;27;20190;-35
2022/08/25 01:03:23;;;;;;;5.03;3.30;;;26.00;91.70;;;;;;5104346;27;20193;-35
2022/08/25 01:06:04;;;;;;;5.95;3.28;;;26.00;91.80;;;;;;5120143;27;20996;-36
2022/08/25 01:08:32;;;;;;;5.68;3.53;;;25.90;91.90;;;;;;5112375;27;20232;-37
2022/08/25 01:11:05;;;;;;;4.53;3.58;;;25.90;91.90;;;;;;5112089;27;20190;-37
2022/08/25 01:13:43;;;;;;;6.50;3.72;;;25.90;92.00;;;;;;5124265;27;20312;-37
2022/08/25 01:16:13;;;;;;;4.28;3.83;;;25.80;92.00;;;;;;5093559;27;20198;-44
2022/08/25 01:18:43;;;;;;;5.55;3.72;;;25.80;92.00;;;;;;5120847;27;20202;-44
2022/08/25 01:21:11;;;;;;;3.95;3.50;;;25.80;92.00;;;;;;5111601;27;20202;-44
2022/08/25 01:23:41;;;;;;;6.00;3.80;;;25.70;92.00;;;;;;5118141;27;20677;-45
2022/08/25 01:26:12;;;;;;;4.68;3.42;;;25.70;92.10;;;;;;5103149;27;20332;-44
2022/08/25 01:31:36;;;;;;;3.42;3.13;;;25.60;92.10;;;;;;5110683;27;20581;-44
2022/08/25 01:34:05;;;;;;;4.78;3.50;;;25.60;92.20;;;;;;5113854;27;20595;-45
2022/08/25 01:36:38;;;;;;;4.57;3.38;;;25.50;92.10;;;;;;5120864;27;20230;-44
2022/08/25 01:39:05;;;;;;;4.95;3.70;;;25.50;92.10;;;;;;5121859;27;20205;-44
2022/08/25 01:41:35;;;;;;;5.53;3.45;;;25.50;92.20;;;;;;5118525;27;20274;-46
2022/08/25 01:44:07;;;;;;;6.55;3.63;;;25.40;92.20;;;;;;5114832;27;20205;-44
2022/08/25 01:46:43;;;;;;;3.80;3.13;;;25.40;92.30;;;;;;5120632;27;20202;-43
2022/08/25 01:49:13;;;;;;;6.35;3.80;;;25.40;92.60;;;;;;5117194;27;20305;-45
2022/08/25 01:51:51;;;;;;;7.55;3.70;;;25.40;92.30;;;;;;5108510;27;20577;-44
2022/08/25 01:54:18;;;;;;;6.10;3.50;;;25.40;92.30;;;;;;5112367;27;20290;-45
2022/08/25 01:56:50;;;;;;;6.10;3.35;;;25.30;92.20;;;;;;5127670;27;20210;-45
2022/08/25 01:59:20;;;;;;;3.92;3.50;;;25.30;92.20;;;;;;5125241;27;20597;-45
2022/08/25 02:01:51;;;;;;;5.57;4.00;;;25.30;92.20;;;;;;5115458;27;20285;-46
2022/08/25 02:04:30;;;;;;;5.95;4.15;;;25.30;92.20;;;;;;5116533;27;20209;-45
2022/08/25 02:07:02;;;;;;;6.32;4.13;;;25.30;92.10;;;;;;5106542;28;20201;-45
2022/08/25 02:09:30;;;;;;;6.47;3.90;;;25.20;92.10;;;;;;5124075;27;20281;-45
2022/08/25 02:11:58;;;;;;;6.05;4.07;;;25.20;92.10;;;;;;5117989;27;20540;-50
2022/08/25 02:14:27;;;;;;;5.70;4.43;;;25.20;92.00;;;;;;5123631;27;20785;-44
2022/08/25 02:16:55;;;;;;;7.00;3.90;;;25.10;92.00;;;;;;5096861;28;20198;-37
2022/08/25 02:19:24;;;;;;;5.03;3.35;;;25.10;92.00;;;;;;5107139;28;20225;-37
2022/08/25 02:21:52;;;;;;;6.10;4.18;;;25.10;92.00;;;;;;5117618;27;20206;-37
2022/08/25 02:24:22;;;;;;;5.20;4.07;;;25.00;92.00;;;;;;5119007;28;20205;-37
2022/08/25 02:26:49;;;;;;;6.05;4.10;;;25.00;92.00;;;;;;5127372;28;20772;-37
2022/08/25 02:29:17;;;;;;;4.75;4.05;;;25.00;92.00;;;;;;5124124;28;20568;-37
2022/08/25 02:31:46;;;;;;;4.43;3.63;;;25.00;92.00;;;;;;5118338;28;20594;-37
2022/08/25 02:34:16;;;;;;;5.60;4.63;;;24.90;92.00;;;;;;5109579;28;20218;-46
2022/08/25 02:36:45;;;;;;;6.45;4.13;;;24.90;92.00;;;;;;5118250;28;20197;-45
2022/08/25 02:39:13;;;;;;;6.85;4.45;;;24.80;92.00;;;;;;5118693;28;20679;-45
2022/08/25 02:41:44;;;;;;;6.55;4.45;;;24.80;92.00;;;;;;5096522;28;20210;-44
2022/08/25 02:44:15;;;;;;;6.00;4.35;;;24.80;92.00;;;;;;5110584;28;20563;-44
2022/08/25 02:46:44;;;;;;;6.25;3.97;;;24.70;92.00;;;;;;5091871;28;20680;-37
2022/08/25 02:49:14;;;;;;;4.20;3.72;;;24.70;92.00;;;;;;5112705;28;20218;-37
2022/08/25 02:51:41;;;;;;;5.95;4.20;;;24.70;92.00;;;;;;5123366;28;20208;-37
2022/08/25 02:54:11;;;;;;;4.95;4.15;;;24.70;92.00;;;;;;5110366;28;20599;-37
2022/08/25 02:56:43;;;;;;;5.50;4.15;;;24.70;91.90;;;;;;5122888;28;20278;-45
2022/08/25 02:59:10;;;;;;;5.53;4.40;;;24.70;91.90;;;;;;5123276;28;20598;-43
2022/08/25 03:01:37;;;;;;;6.30;4.15;;;24.70;91.90;;;;;;5116427;28;20230;-44
2022/08/25 03:04:06;;;;;;;6.07;4.30;;;24.70;91.90;;;;;;5118043;27;20505;-44
2022/08/25 03:06:35;;;;;;;5.90;4.35;;;24.70;92.00;;;;;;5105485;28;20309;-44
2022/08/25 03:09:03;;;;;;;5.85;4.50;;;24.60;92.00;;;;;;5098790;28;20546;-44
2022/08/25 03:11:31;;;;;;;6.68;4.35;;;24.60;91.90;;;;;;5120969;28;20202;-37
2022/08/25 03:14:02;;;;;;;5.35;4.00;;;24.60;91.90;;;;;;5114198;28;20301;-37
2022/08/25 03:16:34;;;;;;;5.13;4.32;;;24.50;91.90;;;;;;5112088;28;20614;-37
2022/08/25 03:19:03;;;;;;;6.72;4.70;;;24.50;91.90;;;;;;5122561;28;20237;-37
2022/08/25 03:21:31;;;;;;;7.15;4.65;;;24.50;91.90;;;;;;5123103;28;20193;-37
2022/08/25 03:24:01;;;;;;;5.60;4.30;;;24.50;91.90;;;;;;5119945;28;20201;-37
2022/08/25 03:29:17;;;;;;;10.20;4.28;;;24.40;91.80;;;;;;5128942;27;20511;-37
2022/08/25 03:31:50;;;;;;;4.80;4.30;;;24.40;91.80;;;;;;5126697;27;20561;-36
2022/08/25 03:34:18;;;;;;;7.30;4.10;;;24.40;91.80;;;;;;5093643;28;20241;-37
2022/08/25 03:36:50;;;;;;;5.30;3.83;;;24.30;91.80;;;;;;5120695;27;20200;-37
2022/08/25 03:39:19;;;;;;;6.30;4.00;;;24.30;91.70;;;;;;5128186;27;20293;-37
2022/08/25 03:41:47;;;;;;;8.43;3.88;;;24.30;91.70;;;;;;5121805;27;20202;-37
2022/08/25 03:44:15;;;;;;;5.70;3.67;;;24.30;91.70;;;;;;5120501;27;20274;-37
2022/08/25 03:46:50;;;;;;;4.78;3.35;;;24.30;91.70;;;;;;5120215;27;20255;-37
2022/08/25 03:49:21;;;;;;;6.28;4.35;;;24.20;91.70;;;;;;5097011;28;20275;-45
2022/08/25 03:51:53;;;;;;;7.75;3.70;;;24.20;91.70;;;;;;5092367;27;20301;-45
2022/08/25 03:54:23;;;;;;;5.43;3.65;;;24.20;91.60;;;;;;5125562;27;20226;-45
2022/08/25 03:56:51;;;;;;;6.90;4.35;;;24.20;91.60;;;;;;5124645;27;20198;-46
2022/08/25 03:59:21;;;;;;;8.85;3.75;;;24.10;91.50;;;;;;5100957;27;20238;-45
2022/08/25 04:01:49;;;;;;;7.22;3.90;;;24.10;91.50;;;;;;5104475;28;20301;-45
2022/08/25 04:04:21;;;;;;;9.07;3.92;;;24.10;91.50;;;;;;5101698;28;20210;-45
2022/08/25 04:06:48;;;;;;;5.63;3.83;;;24.00;91.50;;;;;;5099366;28;20197;-44
2022/08/25 04:09:18;;;;;;;6.35;3.60;;;24.00;91.50;;;;;;5101905;28;20801;-44
2022/08/25 04:11:51;;;;;;;5.78;3.60;;;24.00;91.40;;;;;;5105367;28;20668;-44
2022/08/25 04:14:22;;;;;;;5.50;4.10;;;24.00;91.50;;;;;;5105489;28;20222;-45
2022/08/25 04:16:51;;;;;;;5.97;3.78;;;24.00;91.50;;;;;;5097610;28;20694;-43
2022/08/25 04:19:21;;;;;;;6.05;3.67;;;24.00;91.50;;;;;;5096079;28;20289;-44
2022/08/25 04:21:51;;;;;;;8.50;3.75;;;23.90;91.40;;;;;;5094801;28;20198;-44
2022/08/25 04:24:30;;;;;;;11.50;4.80;;;23.90;91.40;;;;;;5089252;28;20215;-44
2022/08/25 04:26:57;;;;;;;8.77;4.00;;;23.90;91.40;;;;;;5098337;28;20569;-43
2022/08/25 04:29:25;;;;;;;7.18;3.88;;;23.90;91.40;;;;;;5099750;28;20289;-44
2022/08/25 04:31:53;;;;;;;8.55;4.13;;;23.90;91.40;;;;;;5097738;28;20297;-43
2022/08/25 04:34:24;;;;;;;8.98;3.83;;;23.80;91.30;;;;;;5100285;28;20206;-43
2022/08/25 04:37:05;;;;;;;9.18;3.92;;;23.80;91.30;;;;;;5093249;28;20206;-36
2022/08/25 04:39:35;;;;;;;10.82;3.90;;;23.70;91.30;;;;;;5104453;28;20194;-37
2022/08/25 04:42:02;;;;;;;8.18;3.83;;;23.70;91.30;;;;;;5106535;28;20663;-37
2022/08/25 04:44:34;;;;;;;6.55;3.38;;;23.70;91.20;;;;;;5095552;28;20210;-37
2022/08/25 04:47:02;;;;;;;5.18;3.67;;;23.70;91.20;;;;;;5097526;28;20210;-37
2022/08/25 04:49:31;;;;;;;8.55;3.60;;;23.60;91.20;;;;;;5097830;28;20214;-37
2022/08/25 04:52:01;;;;;;;6.63;3.63;;;23.60;91.20;;;;;;5095591;28;20207;-37
2022/08/25 04:54:39;;;;;;;6.07;3.53;;;23.60;91.20;;;;;;5096253;28;20233;-44
2022/08/25 04:57:06;;;;;;;8.52;3.35;;;23.50;91.10;;;;;;5101142;28;20218;-44
2022/08/25 04:59:33;;;;;;;6.07;3.70;;;23.50;91.10;;;;;;5093580;28;20245;-44
2022/08/25 05:02:05;;;;;;;5.85;3.83;;;23.50;91.10;;;;;;5095053;28;20314;-44
2022/08/25 05:04:37;;;;;;;7.30;3.53;;;23.50;91.10;;;;;;5092662;28;20218;-44
2022/08/25 05:07:06;;;;;;;5.80;3.65;;;23.50;91.10;;;;;;5096041;28;20199;-44
2022/08/25 05:09:34;;;;;;;4.85;3.25;;;23.50;91.10;;;;;;5102422;28;20206;-43
2022/08/25 05:12:03;;;;;;;5.80;3.78;;;23.50;91.10;;;;;;5098617;28;20668;-43
2022/08/25 05:14:34;;;;;;;5.93;3.75;;;23.50;91.10;;;;;;5102338;28;20210;-44
2022/08/25 05:17:01;;;;;;;13.10;3.75;;;23.50;91.20;;;;;;5094516;28;20247;-44
2022/08/25 05:19:28;;;;;;;15.77;5.18;;;23.50;91.10;;;;;;5091994;28;20213;-44
2022/08/25 05:21:58;;;;;;;18.40;4.90;;;23.50;91.20;;;;;;5097743;28;20634;-43
2022/08/25 05:24:28;;;;;;;24.20;5.97;;;23.50;91.20;;;;;;5096287;28;20638;-43
2022/08/25 05:26:56;;;;;;;25.27;5.78;;;23.50;91.20;;;;;;5095483;28;20282;-43
2022/08/25 05:29:27;;;;;;;21.73;5.55;;;23.50;91.20;;;;;;5100431;28;20200;-43
2022/08/25 05:31:54;;;;;;;17.25;5.50;;;23.50;91.20;;;;;;5098315;28;20206;-44
2022/08/25 05:34:24;;;;;;;27.65;6.15;;;23.50;91.20;;;;;;5099826;28;20206;-44
2022/08/25 05:36:51;;;;;;;34.42;7.53;;;23.50;91.30;;;;;;5091462;27;20209;-44
2022/08/25 05:39:21;;;;;;;29.25;6.97;;;23.50;91.30;;;;;;5095597;28;20220;-44
2022/08/25 05:41:49;;;;;;;17.10;5.53;;;23.50;91.30;;;;;;5092581;28;20198;-44
2022/08/25 05:44:17;;;;;;;37.88;8.32;;;23.60;91.40;;;;;;5086029;28;20198;-44
2022/08/25 05:46:47;;;;;;;27.90;6.45;;;23.60;91.40;;;;;;5094263;28;20234;-45
2022/08/25 05:49:14;;;;;;;24.23;6.03;;;23.60;91.40;;;;;;5096843;28;20198;-44
2022/08/25 05:51:44;;;;;;;18.92;4.40;;;23.60;91.40;;;;;;5101276;28;20354;-44
2022/08/25 05:54:14;;;;;;;8.50;4.40;;;23.70;91.40;;;;;;5094331;28;20209;-45
2022/08/25 05:56:41;;;;;;;13.45;4.03;;;23.60;91.40;;;;;;5097044;28;20322;-43
2022/08/25 05:59:08;;;;;;;5.47;3.58;;;23.70;91.40;;;;;;5098719;27;20395;-44
2022/08/25 06:04:26;;;;;;;8.88;4.15;;;23.70;91.40;;;;;;5131437;27;20332;-44
2022/08/25 06:06:56;;;;;;;12.23;3.92;;;23.80;91.50;;;;;;5114076;27;20256;-44
2022/08/25 06:09:23;;;;;;;8.20;3.50;;;23.80;91.50;;;;;;5107719;27;20259;-44
2022/08/25 06:11:51;;;;;;;5.38;3.30;;;23.90;91.50;;;;;;5104798;27;20201;-44
2022/08/25 06:14:24;;;;;;;8.77;3.85;;;23.90;91.60;;;;;;5088120;28;20236;-44
2022/08/25 06:16:54;;;;;;;4.85;3.85;;;24.00;91.60;;;;;;5090734;27;20228;-43
2022/08/25 06:19:22;;;;;;;6.40;3.40;;;24.00;91.60;;;;;;5114792;27;20289;-44
2022/08/25 06:21:55;;;;;;;6.80;3.47;;;24.00;91.60;;;;;;5121328;27;20224;-44
2022/08/25 06:24:26;;;;;;;4.10;2.80;;;24.10;91.60;;;;;;5103926;28;20189;-43
2022/08/25 06:26:56;;;;;;;5.95;3.90;;;24.20;91.70;;;;;;5122918;28;20570;-43
2022/08/25 06:29:24;;;;;;;5.97;3.25;;;24.20;91.70;;;;;;5106966;27;20216;-36
2022/08/25 06:31:51;;;;;;;11.90;4.13;;;24.30;91.70;;;;;;5148353;27;20232;-43
2022/08/25 06:34:19;;;;;;;10.60;3.42;;;24.30;91.70;;;;;;5132400;27;20692;-36
2022/08/25 06:36:50;;;;;;;10.77;3.83;;;24.40;91.80;;;;;;5121170;28;21093;-36
2022/08/25 06:39:17;;;;;;;10.43;3.65;;;24.50;91.80;;;;;;5124708;28;20229;-37
2022/08/25 06:41:49;;;;;;;4.60;3.20;;;24.50;91.80;;;;;;5126158;28;20213;-36
2022/08/25 06:44:16;;;;;;;5.43;2.95;;;24.60;91.80;;;;;;5113498;27;20625;-36
2022/08/25 06:46:46;;;;;;;10.88;4.07;;;24.70;91.90;;;;;;5095680;28;20619;-37
2022/08/25 06:49:15;;;;;;;4.85;2.80;;;24.70;91.80;;;;;;5113468;27;20217;-36
2022/08/25 06:51:42;;;;;;;10.88;3.38;;;24.80;91.90;;;;;;5126114;27;20292;-36
2022/08/25 06:54:12;;;;;;;5.13;2.95;;;24.80;91.90;;;;;;5106067;28;20197;-36
2022/08/25 06:56:40;;;;;;;5.90;3.35;;;24.90;91.90;;;;;;5122942;28;20787;-36
2022/08/25 06:59:10;;;;;;;7.32;3.20;;;25.00;91.90;;;;;;5103330;28;20695;-37
2022/08/25 07:01:44;;;;;;;5.97;3.10;;;25.00;92.00;;;;;;5115202;28;20201;-44
2022/08/25 07:04:15;;;;;;;5.63;3.45;;;25.00;92.00;;;;;;5108240;27;20230;-44
2022/08/25 07:06:46;;;;;;;4.65;3.60;;;25.10;91.90;;;;;;5108318;27;20217;-43
2022/08/25 07:09:20;;;;;;;7.07;3.78;;;25.10;92.00;;;;;;5128296;27;20212;-43
2022/08/25 07:11:53;;;;;;;8.90;3.35;;;25.20;92.00;;;;;;5100281;27;20269;-43
2022/08/25 07:14:22;;;;;;;9.43;3.65;;;25.20;92.00;;;;;;5121351;27;20637;-44
2022/08/25 07:16:52;;;;;;;4.78;3.03;;;25.30;92.00;;;;;;5106601;27;20332;-43
2022/08/25 07:19:19;;;;;;;7.93;3.10;;;25.30;92.10;;;;;;5121806;27;20211;-44
2022/08/25 07:21:50;;;;;;;5.57;3.13;;;25.40;92.10;;;;;;5097063;27;20217;-42
2022/08/25 07:24:17;;;;;;;4.97;3.10;;;25.40;92.10;;;;;;5106154;27;20197;-43
2022/08/25 07:26:45;;;;;;;4.72;2.70;;;25.50;92.10;;;;;;5114451;27;20254;-43
2022/08/25 07:29:20;;;;;;;7.68;3.05;;;25.60;92.10;;;;;;5121494;27;20209;-44
2022/08/25 07:32:03;;;;;;;8.68;2.70;;;25.70;92.20;;;;;;5095848;27;20684;-44
2022/08/25 07:37:24;;;;;;;5.60;2.88;;;25.70;92.20;;;;;;5114463;27;20206;-42
2022/08/25 07:40:31;;;;;;;4.70;2.53;;;25.80;92.20;;;;;;5102091;27;20218;-43
2022/08/25 07:43:07;;;;;;;5.65;3.03;;;25.90;92.30;;;;;;5121011;27;20371;-43
2022/08/25 07:45:38;;;;;;;16.58;3.75;;;26.00;92.30;;;;;;5104033;27;20209;-43
2022/08/25 07:48:20;;;;;;;12.82;4.13;;;26.10;92.40;;;;;;5109721;27;20208;-43
2022/08/25 07:50:52;;;;;;;10.25;3.60;;;26.10;92.40;;;;;;5124800;27;20747;-42
2022/08/25 07:53:19;;;;;;;7.68;3.22;;;26.20;92.50;;;;;;5122001;27;20206;-36
2022/08/25 07:55:48;;;;;;;7.53;3.50;;;26.30;92.50;;;;;;5115390;27;20218;-36
2022/08/25 07:58:20;;;;;;;7.22;3.17;;;26.30;92.50;;;;;;5115383;27;20719;-36
2022/08/25 08:00:48;;;;;;;7.20;2.83;;;26.40;92.50;;;;;;5093825;27;20692;-36
2022/08/25 08:03:16;;;;;;;8.35;2.67;;;26.50;92.60;;;;;;5125266;27;20206;-43
2022/08/25 08:06:11;;;;;;;5.40;2.72;;;26.60;92.60;;;;;;5136131;27;20215;-44
2022/08/25 08:08:44;;;;;;;11.60;3.22;;;26.60;92.60;;;;;;5115546;27;20305;-43
2022/08/25 08:11:16;;;;;;;3.95;2.75;;;26.70;92.60;;;;;;5116451;27;20203;-36
2022/08/25 08:13:46;;;;;;;30.85;5.13;;;26.70;92.60;;;;;;5129962;27;20202;-36
2022/08/25 08:16:18;;;;;;;15.82;4.10;;;26.80;92.60;;;;;;5130072;27;20217;-36
2022/08/25 08:18:48;;;;;;;8.10;3.00;;;26.80;92.60;;;;;;5122936;27;20304;-36
2022/08/25 08:21:25;;;;;;;12.13;3.15;;;26.90;92.60;;;;;;5124940;27;20214;-36
2022/08/25 08:23:59;;;;;;;12.57;3.22;;;26.90;92.60;;;;;;5125395;27;20254;-36
2022/08/25 08:26:27;;;;;;;9.02;2.97;;;27.00;92.60;;;;;;5117989;27;20593;-36
2022/08/25 08:29:22;;;;;;;9.85;3.53;;;27.10;92.60;;;;;;5117001;27;20753;-36
2022/08/25 08:31:56;;;;;;;5.38;3.20;;;27.10;92.60;;;;;;5118932;27;20208;-40
2022/08/25 08:34:24;;;;;;;10.25;2.72;;;27.20;92.70;;;;;;5120420;27;20298;-36
2022/08/25 08:36:53;;;;;;;8.05;2.95;;;27.30;92.70;;;;;;5109294;27;20791;-36
2022/08/25 08:39:21;;;;;;;4.47;2.60;;;27.30;92.70;;;;;;5096057;28;20216;-36
2022/08/25 08:42:21;;;;;;;3.40;2.30;;;27.40;92.60;;;;;;5121990;27;20243;-37
2022/08/25 08:44:53;;;;;;;4.10;2.20;;;27.40;92.60;;;;;;5122741;27;20234;-36
2022/08/25 08:47:51;;;;;;;13.85;3.35;;;27.50;92.50;;;;;;5124398;27;20639;-36
2022/08/25 08:51:03;;;;;;;11.13;2.65;;;27.60;92.60;;;;;;5104115;27;20293;-36
2022/08/25 08:54:03;;;;;;;7.65;2.40;;;27.60;92.60;;;;;;5109034;27;20567;-36
2022/08/25 08:56:37;;;;;;;3.72;2.50;;;27.70;92.60;;;;;;5123337;27;20217;-36
2022/08/25 08:59:24;;;;;;;5.15;2.28;;;27.70;92.60;;;;;;5132347;27;20588;-36
2022/08/25 09:02:01;;;;;;;7.43;2.83;;;27.80;92.60;;;;;;5128543;27;20267;-37
2022/08/25 09:04:48;;;;;;;6.38;2.70;;;27.80;92.60;;;;;;5139754;27;20201;-36
2022/08/25 09:07:20;;;;;;;6.32;2.03;;;27.90;92.70;;;;;;5120841;27;20197;-35
2022/08/25 09:09:50;;;;;;;6.88;2.60;;;28.00;92.60;;;;;;5116978;27;20639;-37
2022/08/25 09:12:40;;;;;;;7.25;2.17;;;28.00;92.60;;;;;;5097375;27;20734;-35
2022/08/25 09:18:37;;;;;;;4.55;2.20;;;28.10;92.30;;;;;;5128839;27;20205;-36
2022/08/25 09:21:27;;;;;;;5.03;2.10;;;28.20;92.40;;;;;;5109369;27;20206;-36
2022/08/25 09:24:06;;;;;;;13.18;2.97;;;28.20;92.40;;;;;;5094318;27;20201;-36
2022/08/25 09:27:27;;;;;;;4.45;2.28;;;28.20;92.30;;;;;;5132031;27;20216;-36
2022/08/25 09:30:13;;;;;;;2.83;1.65;;;28.30;92.50;;;;;;5032196;28;20215;-37
2022/08/25 09:32:48;;;;;;;3.13;1.98;;;28.40;92.40;;;;;;5023073;28;20403;-45
2022/08/25 09:35:27;;;;;;;4.72;2.50;;;28.40;92.30;;;;;;5099760;27;20218;-45
2022/08/25 09:38:09;;;;;;;3.20;1.73;;;28.40;92.00;;;;;;5113755;27;20186;-46
2022/08/25 09:40:39;;;;;;;4.18;2.00;;;28.50;92.20;;;;;;5110272;27;20202;-46
2022/08/25 09:43:34;;;;;;;4.95;2.10;;;28.60;91.90;;;;;;5119328;27;20221;-46
2022/08/25 09:46:15;;;;;;;4.43;2.00;;;28.60;91.80;;;;;;5111452;27;20205;-46
2022/08/25 09:48:54;;;;;;;6.47;1.85;;;28.70;92.10;;;;;;5114092;27;20194;-46
2022/08/25 09:51:28;;;;;;;9.45;2.75;;;28.70;92.10;;;;;;5109771;27;20341;-45
2022/08/25 09:54:11;;;;;;;4.07;2.20;;;28.80;92.00;;;;;;5121469;27;20286;-37
2022/08/25 09:57:04;;;;;;;3.45;1.73;;;28.80;91.90;;;;;;5124480;27;20216;-37
2022/08/25 09:59:36;;;;;;;4.13;1.80;;;28.90;92.00;;;;;;5121917;27;20237;-37
2022/08/25 10:02:22;;;;;;;2.67;1.90;;;28.90;92.10;;;;;;5128290;27;20210;-37
2022/08/25 10:04:51;;;;;;;4.00;1.92;;;29.00;92.00;;;;;;5120054;27;20317;-37
2022/08/25 10:07:28;;;;;;;2.85;1.77;;;29.00;92.00;;;;;;5115496;27;20209;-37
2022/08/25 10:09:58;;;;;;;2.45;1.73;;;29.10;92.00;;;;;;5117589;27;20302;-37
2022/08/25 10:12:37;;;;;;;8.68;2.42;;;29.20;91.90;;;;;;5107334;28;20203;-37
2022/08/25 10:15:15;;;;;;;23.30;4.63;;;29.20;91.90;;;;;;5109129;27;20571;-37
2022/08/25 10:17:57;;;;;;;13.90;2.90;;;29.20;91.60;;;;;;5118088;27;20249;-37
2022/08/25 10:20:27;;;;;;;8.82;2.38;;;29.30;91.80;;;;;;5110051;27;20206;-38
2022/08/25 10:23:13;;;;;;;9.25;2.65;;;29.30;91.60;;;;;;5112573;27;20320;-37
2022/08/25 10:25:50;;;;;;;16.23;3.33;;;29.30;91.70;;;;;;5110239;28;20693;-37
2022/08/25 10:28:39;;;;;;;11.60;2.75;;;29.40;91.20;;;;;;5131116;27;20214;-37
2022/08/25 10:31:36;;;;;;;5.28;2.13;;;29.40;91.60;;;;;;5116001;27;20694;-37
2022/08/25 10:34:13;;;;;;;25.58;4.72;;;29.50;91.20;;;;;;5109917;28;20198;-37
2022/08/25 10:36:59;;;;;;;11.75;2.35;;;29.50;91.10;;;;;;5115067;27;20255;-37
2022/08/25 10:39:56;;;;;;;10.32;2.45;;;29.60;91.20;;;;;;5118706;27;20208;-36
2022/08/25 10:42:39;;;;;;;19.10;3.90;;;29.60;91.20;;;;;;5116931;27;20194;-35
2022/08/25 10:48:27;;;;;;;5.85;2.20;;;29.70;91.20;;;;;;5117605;27;20206;-36
2022/08/25 10:51:10;;;;;;;8.68;2.92;;;29.80;91.20;;;;;;5119228;27;20248;-35
2022/08/25 10:53:59;;;;;;;20.65;4.28;;;29.80;91.00;;;;;;5111076;27;20574;-35
2022/08/25 10:56:39;;;;;;;5.30;1.90;;;29.90;90.90;;;;;;5131366;27;20593;-35
2022/08/25 10:59:34;;;;;;;10.52;2.35;;;30.00;90.00;;;;;;5093731;27;20256;-36
2022/08/25 11:02:38;;;;;;;6.72;2.22;;;30.00;90.20;;;;;;5126834;27;20204;-35
2022/08/25 11:05:35;;;;;;;7.40;2.35;;;30.10;90.60;;;;;;5108754;27;20627;-35
2022/08/25 11:08:30;;;;;;;15.02;2.85;;;30.10;90.80;;;;;;5119658;27;20237;-36
2022/08/25 11:11:08;;;;;;;18.45;4.03;;;30.30;90.50;;;;;;5108541;27;20564;-35
2022/08/25 11:13:57;;;;;;;3.83;2.10;;;30.30;90.50;;;;;;5117727;27;20241;-35
2022/08/25 11:16:30;;;;;;;12.30;2.88;;;30.40;90.90;;;;;;5105346;27;20228;-36
2022/08/25 11:19:20;;;;;;;31.52;5.30;;;30.50;91.10;;;;;;5114301;27;20668;-36
2022/08/25 11:22:15;;;;;;;13.00;3.22;;;30.60;91.00;;;;;;5092307;27;20210;-35
2022/08/25 11:25:08;;;;;;;7.93;2.30;;;30.70;90.70;;;;;;5089774;27;20687;-35
2022/08/25 11:27:54;;;;;;;6.40;1.77;;;30.70;90.40;;;;;;5065456;27;20267;-44
2022/08/25 11:30:21;;;;;;;4.15;1.70;;;30.80;90.60;;;;;;5118756;27;20228;-44
2022/08/25 11:32:54;;;;;;;9.05;3.05;;;30.90;90.70;;;;;;5124980;27;20207;-44
2022/08/25 11:35:30;;;;;;;5.60;2.05;;;30.90;90.50;;;;;;5110667;27;20202;-42
2022/08/25 11:38:14;;;;;;;2.75;1.98;;;31.00;90.20;;;;;;5093218;27;20312;-44
2022/08/25 11:40:43;;;;;;;4.90;1.83;;;31.10;90.50;;;;;;5101615;27;20708;-36
2022/08/25 11:43:28;;;;;;;8.73;2.63;;;31.10;90.50;;;;;;5112867;27;20206;-35
2022/08/25 11:46:28;;;;;;;6.03;2.10;;;31.20;90.20;;;;;;5123818;27;20655;-36
2022/08/25 11:49:36;;;;;;;3.35;1.88;;;31.30;90.50;;;;;;5112616;27;20641;-36
2022/08/25 11:52:28;;;;;;;1.60;1.50;;;31.30;90.40;;;;;;5100411;27;20201;-36
2022/08/25 11:55:15;;;;;;;3.10;1.60;;;31.40;90.40;;;;;;5104191;27;20205;-36
2022/08/25 11:57:50;;;;;;;2.03;1.65;;;31.40;90.40;;;;;;5126450;27;20224;-35
2022/08/25 12:00:38;;;;;;;4.10;2.08;;;31.50;90.40;;;;;;5102700;27;20610;-36
2022/08/25 12:03:35;;;;;;;4.50;1.75;;;31.50;90.40;;;;;;5114156;27;20197;-35
2022/08/25 12:06:30;;;;;;;4.88;2.13;;;31.60;90.40;;;;;;5116272;27;20242;-35
2022/08/25 12:09:00;;;;;;;5.68;1.90;;;31.60;90.00;;;;;;5112128;27;20198;-43
2022/08/25 12:11:47;;;;;;;3.83;2.03;;;31.70;90.10;;;;;;5119264;27;20654;-44
2022/08/25 12:14:23;;;;;;;7.35;2.78;;;31.70;90.20;;;;;;5113766;27;20592;-43
2022/08/25 12:16:54;;;;;;;2.28;1.50;;;31.80;90.20;;;;;;5104943;27;20320;-44
2022/08/25 12:19:33;;;;;;;2.05;1.70;;;31.80;90.10;;;;;;5121041;27;20209;-43
2022/08/25 12:22:03;;;;;;;1.67;1.52;;;31.90;90.10;;;;;;5127355;27;20209;-44
2022/08/25 12:24:41;;;;;;;2.97;1.80;;;32.00;89.90;;;;;;5108841;27;20185;-42
2022/08/25 12:27:51;;;;;;;2.00;1.80;;;32.00;89.80;;;;;;5124777;27;20609;-44
2022/08/25 12:30:34;;;;;;;5.50;2.08;;;32.00;89.80;;;;;;5124313;27;20244;-44
2022/08/25 12:33:36;;;;;;;2.53;1.63;;;32.10;89.60;;;;;;5093491;27;20229;-44
2022/08/25 12:36:09;;;;;;;3.15;1.70;;;32.10;89.70;;;;;;5132457;27;20196;-44
2022/08/25 12:38:47;;;;;;;2.42;1.52;;;32.10;89.70;;;;;;5125201;27;20755;-44
2022/08/25 12:41:29;;;;;;;1.92;1.83;;;32.20;89.50;;;;;;5127122;27;20201;-43
2022/08/25 12:44:34;;;;;;;2.85;1.83;;;32.20;89.00;;;;;;5138367;27;20288;-44
2022/08/25 12:47:12;;;;;;;3.88;1.80;;;32.20;89.10;;;;;;5121538;27;20200;-44
2022/08/25 12:49:40;;;;;;;4.05;1.67;;;32.20;89.00;;;;;;5116481;27;20199;-43
2022/08/25 12:52:22;;;;;;;3.03;1.58;;;32.20;88.80;;;;;;5117286;27;20766;-42
2022/08/25 12:55:10;;;;;;;4.65;1.80;;;32.20;89.20;;;;;;5118163;27;20205;-44
2022/08/25 12:57:48;;;;;;;10.88;2.70;;;32.30;89.10;;;;;;5129185;27;20210;-43
2022/08/25 13:00:22;;;;;;;7.60;1.88;;;32.30;88.60;;;;;;5115751;27;20206;-43
2022/08/25 13:03:12;;;;;;;10.82;2.25;;;32.40;88.80;;;;;;5130356;27;20189;-43
2022/08/25 13:06:12;;;;;;;5.82;1.92;;;32.50;89.00;;;;;;5090804;28;20839;-43
2022/08/25 13:08:56;;;;;;;17.05;3.33;;;32.60;88.50;;;;;;5125577;27;20748;-43
2022/08/25 13:11:39;;;;;;;7.65;2.53;;;32.60;88.30;;;;;;5125041;27;20205;-43
2022/08/25 13:14:35;;;;;;;3.20;2.00;;;32.70;88.20;;;;;;5122926;27;20658;-44
2022/08/25 13:17:04;;;;;;;8.30;2.20;;;32.80;88.20;;;;;;5111341;27;20234;-43
2022/08/25 13:19:37;;;;;;;12.07;3.45;;;32.80;88.10;;;;;;5096679;27;20202;-44
2022/08/25 13:22:24;;;;;;;11.20;3.00;;;32.90;88.30;;;;;;5114762;27;20264;-44
2022/08/25 13:24:55;;;;;;;7.18;2.53;;;32.90;88.30;;;;;;5109403;27;20286;-43
2022/08/25 13:27:35;;;;;;;7.95;2.35;;;33.00;88.50;;;;;;5105628;27;20687;-43
2022/08/25 13:30:04;;;;;;;10.18;2.47;;;33.00;88.30;;;;;;5128195;27;20213;-43
2022/08/25 13:32:35;;;;;;;2.75;1.90;;;33.10;87.70;;;;;;5093147;27;20209;-42
2022/08/25 13:35:25;;;;;;;2.80;1.77;;;33.10;86.90;;;;;;5121188;27;20288;-43
2022/08/25 13:38:15;;;;;;;2.67;1.60;;;33.10;86.10;;;;;;5110862;27;20218;-43
2022/08/25 13:40:43;;;;;;;10.60;3.03;;;33.00;87.00;;;;;;5121688;27;20233;-43
2022/08/25 13:43:13;;;;;;;21.35;4.38;;;33.10;87.30;;;;;;5106145;27;20259;-44